Terminal Aerodrome Forecast
Issued by NWS Wilmington, NC

Home | Current Version | Previous Version | Text Only | Print | Product List | Glossary On
Versions: 1 2 3 4 5 6 7 8 9 10 11 12 13 14 15 16 17 18 19 20
000
FTUS42 KILM 201800 AAA
TAFLBT
TAF AMD
KLBT 201855Z 2019/2118 28006KT P6SM VCTS SCT035CB BKN060
      TEMPO 2019/2020 VRB05G22KT 1SM TSRA OVC035CB
     FM210000 VRB03KT P6SM BKN250
     FM210900 00000KT 1SM BR SCT250
     FM211300 VRB04KT P6SM SCT250=

USA.gov is the U.S. government's official web portal to all federal, state and local government web resources and services.